Meath Environmental Platform

Observations for Trim Patrick St

Time AQI Temp °C Hum % Pres Pa CO μg/m³ H₂S μg/m³ NO μg/m³ NO₂ μg/m³ O₃ μg/m³ SO₂ μg/m³ PM1 μg/m³ PM2.5 μg/m³ PM10 μg/m³
Tuesday 4 August 2026
21:11 2 19.5 64 78,802 0 5.85 2.6 12.91 69.3 2.02 2.86 6.97 7.67
21:09 2 19.5 65 78,629 0 6.28 2.33 13.25 70.45 1.06 2 6.22 6.84
21:08 2 19.5 65 78,460 0 6.54 2.02 13.01 67.95 1.35 2 5.49 6.04
21:07 2 19.6 65 78,354 0 8.06 1.84 17.49 70.7 1.22 2.86 6.94 7.63
21:06 2 19.6 64 78,153 0 5.54 1.9 15.24 68.49 1.1 2.86 6.98 7.68
21:05 2 19.6 64 78,067 0 6.06 1.89 13.14 68.92 1.05 2 5.53 6.08
21:04 2 19.6 64 78,051 0 5.98 1.86 13.4 68.87 1.47 3.71 7.74 8.51
21:02 2 19.7 63 78,116 0 4.93 1.63 14.73 71.73 0.96 2.86 6.3 6.93
21:00 2 19.8 64 78,173 0 5.32 1.35 12.5 72.8 1.6 2.86 6.28 6.9
20:59 2 19.8 64 78,179 0 5.38 1.91 12.81 73.15 1.25 2 6.3 6.93
20:58 2 19.9 64 78,259 0 5.11 1.62 12.65 72.26 1.32 3.71 7.03 7.73
20:57 2 19.9 64 78,336 0 4.9 2.2 12.69 72.02 1.45 2.86 6.27 6.9
20:56 2 19.9 64 78,438 0 7.08 2.04 12.97 67.07 2.18 3.71 8.5 9.35
20:55 2 20 64 78,405 0 7.87 2.03 18.61 67.71 2.15 2 6.25 6.88
20:54 2 20 64 78,283 0 6.74 1.82 14.17 69.51 2.29 2 6.27 6.9
20:53 2 20.1 64 78,246 0 7.26 2.34 14.68 70.15 2.44 2.86 7.02 7.72
20:52 2 20.1 64 78,200 0 6.34 2 12.8 72.14 2.43 2.86 6.28 6.91
20:51 2 20.2 63 78,179 0 6.55 2.47 12.86 70.05 2.83 2 5.59 6.15
20:50 2 20.2 63 78,198 0 6.68 2.33 14.73 68.73 1.93 2 6.32 6.95
20:49 2 20.2 63 78,226 0 7.1 1.61 15.98 68.86 2.06 4.57 8.53 9.38